• 1385014 10153382300060425 128216538 n
  • 3
  • 6
  • 7
  • 1
  • 10
  • 未命名
  • 121
  • 55
  • 2
  • cargo

Click here and log in to see your monthly flight duties. 請按此登入個人班表區

Welcome aboard

Current Weather

[source: ADDS]
METAR
RCTP 260530Z 04024KT 9999 SCT012 BKN020 24/18 Q1014 NOSIG RMK A2997 =
TAF
TAF RCTP 260500Z 2606/2712 04015KT 9999 FEW015 BKN032 TEMPO 2606/2612 03022KT FEW008 BKN015 TEMPO 2616/2622 07010KT FEW010 BKN018 BECMG 2622/2624 06010KT TEMPO 2700/2706 07015KT FEW012 BKN020 =